Time;durP1;ratioP1;P1;durP2;ratioP2;P2;SDS_P1;SDS_P2;PMS_P1;PMS_P2;Temp;Humidity;BMP_temperature;BMP_pressure;BME280_temperature;BME280_humidity;BME280_pressure;Samples;Min_cycle;Max_cycle;Signal;HPM_P1;HPM_P2
2022/06/04 00:00:29;;;;;;;11.84;10.51;;;;;;;20.40;91.49;101141.21;452807;117;923264;-76
2022/06/04 00:01:32;;;;;;;11.92;10.42;;;;;;;20.37;91.57;101142.59;452780;117;922561;-77
2022/06/04 00:02:42;;;;;;;11.88;10.51;;;;;;;20.38;91.62;101141.50;452944;117;922509;-76
2022/06/04 00:03:46;;;;;;;11.71;10.30;;;;;;;20.37;91.65;101133.45;452689;117;922612;-76
2022/06/04 00:04:49;;;;;;;11.20;9.71;;;;;;;20.38;91.57;101141.50;452842;117;922547;-76
2022/06/04 00:05:54;;;;;;;9.99;9.07;;;;;;;20.39;91.59;101131.27;452864;117;922555;-76
2022/06/04 00:06:58;;;;;;;11.26;9.34;;;;;;;20.40;91.58;101132.91;452639;117;922618;-76
2022/06/04 00:08:03;;;;;;;10.86;9.74;;;;;;;20.39;91.60;101140.41;452723;117;922505;-76
2022/06/04 00:09:08;;;;;;;11.00;8.93;;;;;;;20.37;91.53;101128.75;452571;117;922564;-76
2022/06/04 00:15:48;;;;;;;9.25;8.31;;;;;;;20.34;91.54;101128.45;449210;118;923026;-77
2022/06/04 00:16:51;;;;;;;8.15;7.21;;;;;;;20.32;91.71;101123.17;449191;118;922726;-77
2022/06/04 00:17:55;;;;;;;9.02;7.07;;;;;;;20.29;91.78;101131.97;449394;118;922705;-77
2022/06/04 00:18:58;;;;;;;10.72;7.81;;;;;;;20.29;91.72;101126.42;449358;118;923496;-76
2022/06/04 00:20:03;;;;;;;8.94;7.61;;;;;;;20.29;91.64;101131.97;449365;118;922537;-75
2022/06/04 00:21:08;;;;;;;8.12;7.32;;;;;;;20.29;91.61;101125.59;449161;118;923166;-75
2022/06/04 00:22:11;;;;;;;8.14;7.35;;;;;;;20.28;91.59;101123.95;449256;118;922590;-75
2022/06/04 00:23:15;;;;;;;8.36;7.54;;;;;;;20.27;91.55;101123.11;449403;118;922595;-76
2022/06/04 00:24:18;;;;;;;7.99;6.65;;;;;;;20.27;91.53;101122.27;449361;118;922548;-78
2022/06/04 00:25:21;;;;;;;8.28;6.64;;;;;;;20.26;91.55;101121.44;449384;118;922556;-77
2022/06/04 00:26:24;;;;;;;12.24;6.81;;;;;;;20.26;91.50;101126.14;449440;118;922641;-77
2022/06/04 00:27:28;;;;;;;7.19;6.54;;;;;;;20.26;91.47;101129.73;449428;118;922628;-76
2022/06/04 00:28:31;;;;;;;7.33;6.75;;;;;;;20.26;91.42;101126.97;449403;118;922551;-76
2022/06/04 00:29:34;;;;;;;7.41;6.56;;;;;;;20.26;91.36;101131.67;453412;116;922566;-77
2022/06/04 00:30:38;;;;;;;6.83;6.11;;;;;;;20.26;91.35;101131.67;457322;115;922509;-76
2022/06/04 00:31:41;;;;;;;7.16;6.49;;;;;;;20.25;91.39;101130.84;457174;116;922719;-76
2022/06/04 00:32:44;;;;;;;6.58;6.08;;;;;;;20.24;91.32;101131.93;457336;116;923454;-76
2022/06/04 00:33:48;;;;;;;6.66;5.92;;;;;;;20.24;91.38;101136.62;457257;116;923106;-76
2022/06/04 00:34:51;;;;;;;6.58;5.94;;;;;;;20.23;91.21;101134.98;457284;116;923028;-77
2022/06/04 00:35:55;;;;;;;6.66;6.08;;;;;;;20.23;91.21;101134.98;457328;116;922584;-76
2022/06/04 00:36:59;;;;;;;5.95;5.32;;;;;;;20.21;91.16;101129.70;457134;115;923304;-76
2022/06/04 00:38:04;;;;;;;7.09;6.34;;;;;;;20.19;91.20;101134.66;457174;115;930507;-77
2022/06/04 00:39:07;;;;;;;6.36;5.79;;;;;;;20.21;91.30;101134.41;457038;116;930573;-76
2022/06/04 00:40:14;;;;;;;6.67;6.07;;;;;;;20.21;91.27;101137.17;457202;116;923057;-76
2022/06/04 00:41:24;;;;;;;6.08;5.54;;;;;;;20.20;91.31;101138.27;456596;115;923015;-76
2022/06/04 00:42:27;;;;;;;6.43;5.84;;;;;;;20.21;91.27;101139.95;457165;116;923062;-77
2022/06/04 00:43:31;;;;;;;6.27;5.74;;;;;;;20.20;91.26;101133.56;457377;115;922710;-77
2022/06/04 00:44:38;;;;;;;6.07;5.61;;;;;;;20.20;91.27;101141.03;457205;116;923113;-75
2022/06/04 00:46:18;;;;;;;6.14;5.51;;;;;;;20.20;91.27;101130.80;457161;116;930791;-77
2022/06/04 00:47:27;;;;;;;7.12;5.71;;;;;;;20.21;91.18;101129.70;457483;116;923097;-76
2022/06/04 00:48:30;;;;;;;5.15;4.74;;;;;;;20.20;91.22;101136.34;457202;116;922622;-75
2022/06/04 00:49:34;;;;;;;5.84;5.29;;;;;;;20.20;91.27;101139.11;457391;116;923050;-77
2022/06/04 00:50:40;;;;;;;5.83;5.32;;;;;;;20.19;91.26;101142.97;457183;116;923180;-76
2022/06/04 00:51:46;;;;;;;5.21;4.74;;;;;;;20.19;91.10;101131.89;457241;115;922918;-76
2022/06/04 00:52:51;;;;;;;5.27;4.73;;;;;;;20.18;91.08;101135.75;457205;116;923253;-77
2022/06/04 00:53:56;;;;;;;6.20;5.66;;;;;;;20.19;91.08;101133.83;457222;116;923093;-76
2022/06/04 00:55:02;;;;;;;6.51;5.18;;;;;;;20.19;91.10;101133.83;457243;115;923071;-76
2022/06/04 00:56:30;;;;;;;5.63;5.22;;;;;;;20.19;91.07;101126.36;457180;116;923061;-76
2022/06/04 00:57:48;;;;;;;5.43;4.96;;;;;;;20.20;91.14;101135.50;456753;115;922549;-76
2022/06/04 00:59:01;;;;;;;5.39;4.85;;;;;;;20.19;91.16;101125.52;450905;116;923310;-76
2022/06/04 01:00:29;;;;;;;6.63;5.52;;;;;;;20.19;91.08;101131.89;449427;118;922667;-76
2022/06/04 01:01:45;;;;;;;5.40;4.91;;;;;;;20.20;91.01;101132.73;453576;116;922550;-77
2022/06/04 01:03:03;;;;;;;5.41;4.94;;;;;;;20.18;90.91;101134.95;448008;116;923038;-76
2022/06/04 01:05:50;;;;;;;5.00;4.64;;;;;;;20.14;90.98;101142.09;447454;118;922564;-76
2022/06/04 01:06:59;;;;;;;7.87;5.29;;;;;;;20.12;90.96;101145.15;451828;114;922838;-76
2022/06/04 01:08:12;;;;;;;5.33;4.75;;;;;;;20.11;91.00;101143.48;454126;116;922992;-76
2022/06/04 01:09:37;;;;;;;5.71;5.21;;;;;;;20.12;90.95;101145.15;453500;115;923158;-76
2022/06/04 01:11:17;;;;;;;5.34;4.46;;;;;;;20.11;90.90;101151.78;423541;123;922820;-76
2022/06/04 01:12:49;;;;;;;5.74;5.27;;;;;;;20.19;90.98;101137.44;476711;110;946914;-77
2022/06/04 01:14:13;;;;;;;5.39;5.01;;;;;;;20.08;90.97;101132.91;465156;114;922518;-77
2022/06/04 01:15:19;;;;;;;5.92;4.73;;;;;;;20.07;90.97;101133.20;453860;116;923612;-76
2022/06/04 01:16:26;;;;;;;5.50;5.08;;;;;;;20.06;90.93;101143.44;444998;119;923022;-76
2022/06/04 01:17:36;;;;;;;5.97;5.45;;;;;;;20.06;90.95;101145.36;453949;116;923060;-76
2022/06/04 01:18:46;;;;;;;5.89;5.11;;;;;;;20.06;90.92;101134.30;444611;118;923124;-75
2022/06/04 01:20:21;;;;;;;8.03;5.53;;;;;;;20.04;90.88;101129.02;455016;114;922868;-76
2022/06/04 01:21:40;;;;;;;5.66;5.16;;;;;;;20.04;90.86;101140.08;447537;118;923435;-76
2022/06/04 01:23:20;;;;;;;5.59;5.17;;;;;;;20.05;90.83;101127.08;452534;116;922977;-77
2022/06/04 01:24:26;;;;;;;5.28;4.88;;;;;;;20.03;90.77;101132.88;454925;116;923031;-76
2022/06/04 01:26:07;;;;;;;6.18;5.63;;;;;;;20.03;90.72;101130.10;453840;116;923083;-76
2022/06/04 01:27:17;;;;;;;6.94;5.66;;;;;;;20.01;90.74;101126.78;459182;114;922918;-76
2022/06/04 01:28:21;;;;;;;6.95;6.09;;;;;;;20.01;90.73;101125.95;463847;114;922980;-76
2022/06/04 01:29:40;;;;;;;6.63;6.06;;;;;;;20.00;90.73;101133.41;461303;114;923018;-76
2022/06/04 01:30:49;;;;;;;7.37;6.04;;;;;;;19.98;90.68;101125.36;456758;116;922612;-77
2022/06/04 01:32:02;;;;;;;7.57;6.59;;;;;;;20.00;90.75;101127.88;457161;116;924492;-77
2022/06/04 01:33:24;;;;;;;8.65;5.83;;;;;;;20.01;90.70;101139.78;457162;116;922603;-76
2022/06/04 01:34:37;;;;;;;6.50;5.90;;;;;;;20.01;90.62;101128.72;457179;116;922646;-76
2022/06/04 01:35:50;;;;;;;7.71;6.74;;;;;;;20.01;90.54;101134.25;457055;116;923157;-77
2022/06/04 01:36:59;;;;;;;7.59;6.55;;;;;;;20.01;90.52;101128.72;457034;116;922948;-77
2022/06/04 01:38:09;;;;;;;7.56;6.76;;;;;;;20.03;90.48;101127.33;456081;116;923100;-75
2022/06/04 01:39:18;;;;;;;6.94;6.16;;;;;;;20.03;90.50;101137.57;457186;116;923044;-75
2022/06/04 01:41:51;;;;;;;6.89;6.31;;;;;;;20.02;90.26;101131.20;457195;116;922891;-76
2022/06/04 01:42:57;;;;;;;6.67;6.16;;;;;;;20.01;90.21;101129.55;455144;116;922853;-76
2022/06/04 01:44:03;;;;;;;7.28;6.64;;;;;;;20.01;90.24;101140.62;457183;116;923368;-76
2022/06/04 01:45:09;;;;;;;7.79;6.80;;;;;;;19.99;90.29;101138.11;454955;116;923286;-76
2022/06/04 01:46:19;;;;;;;7.09;6.53;;;;;;;20.00;90.31;101138.95;457225;116;922534;-76
2022/06/04 01:47:22;;;;;;;9.53;6.86;;;;;;;20.03;90.20;101130.10;456802;116;923341;-77
2022/06/04 01:48:28;;;;;;;6.92;6.28;;;;;;;20.05;90.18;101144.53;457321;116;922915;-77
2022/06/04 01:49:35;;;;;;;7.24;6.63;;;;;;;20.06;90.18;101137.89;457176;116;923189;-77
2022/06/04 01:50:47;;;;;;;7.44;6.79;;;;;;;20.06;90.19;101132.36;457219;116;923053;-77
2022/06/04 01:51:54;;;;;;;6.72;6.10;;;;;;;20.08;90.19;101141.22;457147;116;922622;-77
2022/06/04 01:53:00;;;;;;;7.08;6.48;;;;;;;20.11;90.21;101139.87;457173;116;923042;-76
2022/06/04 01:54:10;;;;;;;7.25;6.58;;;;;;;20.13;90.22;101134.87;457166;115;922586;-76
2022/06/04 01:55:16;;;;;;;6.99;6.44;;;;;;;20.15;90.20;101147.38;456507;116;923010;-77
2022/06/04 01:56:34;;;;;;;7.22;6.54;;;;;;;20.27;90.14;101141.66;476970;110;946962;-76
2022/06/04 01:57:47;;;;;;;10.14;7.21;;;;;;;20.18;90.10;101146.03;464599;113;922585;-76
2022/06/04 01:58:57;;;;;;;7.01;6.38;;;;;;;20.18;89.99;101137.72;465308;114;922490;-76
2022/06/04 02:00:04;;;;;;;7.67;7.04;;;;;;;20.19;89.99;101142.97;457135;115;922564;-76
2022/06/04 02:01:14;;;;;;;7.65;6.97;;;;;;;20.20;90.01;101136.34;457183;116;923027;-77
2022/06/04 02:02:26;;;;;;;8.12;7.05;;;;;;;20.22;90.01;101144.39;457069;116;922590;-76
2022/06/04 02:03:42;;;;;;;8.14;7.41;;;;;;;20.24;90.07;101145.77;457183;115;923081;-76
2022/06/04 02:04:49;;;;;;;8.11;7.40;;;;;;;20.25;89.91;101141.91;457068;115;922651;-76
2022/06/04 02:05:59;;;;;;;7.53;6.79;;;;;;;20.27;89.92;101147.20;457209;116;922932;-76
2022/06/04 02:08:37;;;;;;;7.52;6.92;;;;;;;20.30;89.79;101150.26;449414;118;922596;-76
2022/06/04 02:09:46;;;;;;;8.22;7.47;;;;;;;20.31;89.65;101142.78;449371;117;922840;-76
2022/06/04 02:10:56;;;;;;;10.82;7.76;;;;;;;20.31;89.58;101145.55;448953;118;922597;-76
2022/06/04 02:12:02;;;;;;;7.14;6.58;;;;;;;20.32;89.51;101148.09;449020;117;922852;-76
2022/06/04 02:13:08;;;;;;;7.89;7.04;;;;;;;20.32;89.55;101139.79;449347;118;922565;-76
2022/06/04 02:14:11;;;;;;;8.46;6.76;;;;;;;20.34;89.48;101147.84;449401;117;922947;-76
2022/06/04 02:15:18;;;;;;;7.05;6.45;;;;;;;20.35;89.22;101144.78;449597;118;923104;-76
2022/06/04 02:16:40;;;;;;;8.18;7.52;;;;;;;20.34;89.30;101145.08;449400;118;922569;-76
2022/06/04 02:17:46;;;;;;;7.50;6.86;;;;;;;20.35;89.19;101144.78;449260;117;923149;-76
2022/06/04 02:18:50;;;;;;;8.08;7.42;;;;;;;20.38;89.06;101144.27;449384;118;923003;-76
2022/06/04 02:19:53;;;;;;;8.91;7.81;;;;;;;20.38;88.90;101135.96;449462;117;922929;-76
2022/06/04 02:20:56;;;;;;;7.91;7.12;;;;;;;20.44;88.67;101141.53;449568;117;923138;-76
2022/06/04 02:22:00;;;;;;;8.29;7.34;;;;;;;20.48;88.55;101146.27;449596;118;922850;-76
2022/06/04 02:23:03;;;;;;;8.00;7.26;;;;;;;20.48;88.57;101142.66;457348;116;923126;-76
2022/06/04 02:24:07;;;;;;;8.30;7.42;;;;;;;20.48;88.58;101140.73;457325;115;922697;-76
2022/06/04 02:25:12;;;;;;;7.45;6.86;;;;;;;20.51;88.49;101147.69;457338;115;922559;-76
2022/06/04 02:26:17;;;;;;;7.72;7.06;;;;;;;20.52;88.45;101136.31;457200;116;923247;-76
2022/06/04 02:27:21;;;;;;;8.29;6.62;;;;;;;20.54;88.23;101147.14;457224;116;923256;-76
2022/06/04 02:28:25;;;;;;;7.64;6.76;;;;;;;20.53;87.79;101140.76;457445;116;922572;-76
2022/06/04 02:29:28;;;;;;;7.50;6.81;;;;;;;20.52;87.66;101144.63;456693;116;922838;-76
2022/06/04 02:30:52;;;;;;;7.28;6.76;;;;;;;20.51;87.72;101139.38;454199;116;922522;-76
2022/06/04 02:32:07;;;;;;;7.82;7.22;;;;;;;20.51;87.64;101144.91;454049;116;923523;-76
2022/06/04 02:33:14;;;;;;;9.70;7.79;;;;;;;20.50;87.64;101155.16;453840;116;922554;-76
2022/06/04 02:34:30;;;;;;;7.31;6.61;;;;;;;20.51;87.69;101150.45;453901;116;922711;-76
2022/06/04 02:35:53;;;;;;;8.71;7.23;;;;;;;20.51;87.34;101150.45;453849;116;922588;-76
2022/06/04 02:37:08;;;;;;;6.56;6.08;;;;;;;20.50;87.23;101149.63;454000;116;922597;-76
2022/06/04 02:38:29;;;;;;;7.46;6.86;;;;;;;20.49;87.17;101153.48;453910;116;923019;-75
2022/06/04 02:39:36;;;;;;;8.70;7.98;;;;;;;20.48;87.22;101151.81;453891;116;923183;-75
2022/06/04 02:40:46;;;;;;;8.96;7.76;;;;;;;20.48;86.86;101148.20;453813;116;922593;-75
2022/06/04 02:42:07;;;;;;;9.38;8.43;;;;;;;20.46;86.85;101147.62;455521;115;922485;-75
2022/06/04 02:43:17;;;;;;;8.24;7.47;;;;;;;20.46;86.98;101154.00;457024;115;922534;-76
2022/06/04 02:44:26;;;;;;;8.17;7.38;;;;;;;20.48;87.06;101151.81;457230;116;922553;-76
2022/06/04 02:45:49;;;;;;;7.88;7.19;;;;;;;20.59;87.15;101153.55;476989;110;947005;-75
2022/06/04 02:46:56;;;;;;;9.37;7.33;;;;;;;20.52;87.16;101150.17;465255;114;923091;-75
2022/06/04 02:48:09;;;;;;;10.38;7.77;;;;;;;20.53;87.15;101153.77;464247;113;922573;-75
2022/06/04 02:49:18;;;;;;;7.82;7.06;;;;;;;20.55;86.83;101154.35;463696;114;922842;-76
2022/06/04 02:50:28;;;;;;;8.49;7.83;;;;;;;20.55;86.80;101151.58;457146;115;922905;-76
2022/06/04 02:51:37;;;;;;;8.41;7.71;;;;;;;20.56;86.72;101151.33;456859;115;922748;-75
2022/06/04 02:52:42;;;;;;;8.50;7.72;;;;;;;20.57;86.82;101152.97;457230;116;922686;-76
2022/06/04 02:53:47;;;;;;;8.13;7.39;;;;;;;20.58;86.92;101156.58;457230;116;923087;-75
2022/06/04 02:54:54;;;;;;;8.18;7.14;;;;;;;20.60;86.96;101152.45;457281;114;923037;-75
2022/06/04 02:56:01;;;;;;;8.50;7.62;;;;;;;20.62;86.83;101157.73;455807;113;922922;-75
2022/06/04 02:57:07;;;;;;;7.70;6.96;;;;;;;20.65;86.71;101151.64;450177;115;923367;-76
2022/06/04 02:58:13;;;;;;;8.24;7.49;;;;;;;20.65;86.69;101146.94;456467;116;922383;-76
2022/06/04 02:59:21;;;;;;;8.50;7.74;;;;;;;20.65;86.56;101143.33;460444;114;922627;-76
2022/06/04 03:00:26;;;;;;;7.77;7.12;;;;;;;20.66;86.55;101150.55;459393;114;922867;-76
2022/06/04 03:01:32;;;;;;;7.31;6.64;;;;;;;20.68;86.43;101151.09;456983;116;922586;-76
2022/06/04 03:02:36;;;;;;;8.42;7.59;;;;;;;20.69;86.37;101150.00;457045;116;930483;-76
2022/06/04 03:03:40;;;;;;;8.90;8.01;;;;;;;20.69;86.32;101147.23;449900;117;923402;-76
2022/06/04 03:04:47;;;;;;;9.36;6.94;;;;;;;20.71;86.18;101156.12;449203;116;922731;-76
2022/06/04 03:05:56;;;;;;;7.62;7.04;;;;;;;20.71;86.08;101148.64;449172;118;930611;-76
2022/06/04 03:07:07;;;;;;;7.50;6.86;;;;;;;20.73;86.14;101142.84;449324;118;922591;-76
2022/06/04 03:08:10;;;;;;;8.21;7.46;;;;;;;20.75;86.04;101151.70;449211;118;923109;-76
2022/06/04 03:09:16;;;;;;;8.89;7.63;;;;;;;20.75;86.00;101144.22;449492;118;923037;-76
2022/06/04 03:10:22;;;;;;;6.87;6.32;;;;;;;20.75;85.96;101146.16;449224;118;922938;-76
2022/06/04 03:11:26;;;;;;;9.08;7.12;;;;;;;20.77;85.98;101143.97;450417;116;922576;-76
2022/06/04 03:12:29;;;;;;;10.62;6.52;;;;;;;20.79;85.96;101141.73;454107;116;922567;-76
2022/06/04 03:13:32;;;;;;;7.85;6.74;;;;;;;20.80;85.93;101138.70;454166;116;922557;-75
2022/06/04 03:14:36;;;;;;;6.74;6.18;;;;;;;20.82;85.88;101132.91;454114;116;923044;-76
2022/06/04 03:15:40;;;;;;;7.86;7.05;;;;;;;20.84;85.77;101136.22;453931;116;922996;-76
2022/06/04 03:16:46;;;;;;;7.21;6.51;;;;;;;20.84;85.54;101127.09;454145;116;922631;-76
2022/06/04 03:17:49;;;;;;;6.39;5.81;;;;;;;20.83;85.45;101140.12;453935;116;923016;-76
2022/06/04 03:18:52;;;;;;;7.06;6.21;;;;;;;20.83;85.45;101139.28;454868;116;923021;-76
2022/06/04 03:19:56;;;;;;;7.33;6.73;;;;;;;20.83;85.32;101130.97;457225;114;930543;-76
2022/06/04 03:20:59;;;;;;;6.99;6.21;;;;;;;20.81;85.26;101129.30;457282;115;922500;-76
2022/06/04 03:22:03;;;;;;;7.51;6.86;;;;;;;20.81;85.20;101122.91;457322;116;922971;-76
2022/06/04 03:23:06;;;;;;;7.22;6.61;;;;;;;20.81;85.23;101134.00;454047;116;922491;-76
2022/06/04 03:24:13;;;;;;;9.07;6.14;;;;;;;20.81;85.25;101126.52;454052;115;922936;-76
2022/06/04 03:25:16;;;;;;;6.31;5.90;;;;;;;20.82;85.18;101127.36;453823;116;930905;-75
2022/06/04 03:26:19;;;;;;;7.88;6.85;;;;;;;20.84;85.16;101127.09;454174;116;922593;-76
2022/06/04 03:27:22;;;;;;;7.20;6.61;;;;;;;20.84;85.26;101121.55;454139;116;923175;-75
2022/06/04 03:28:25;;;;;;;6.67;6.19;;;;;;;20.84;85.26;101121.55;454184;116;922991;-76
2022/06/04 03:29:28;;;;;;;7.43;6.67;;;;;;;20.85;85.14;101117.65;456372;113;923589;-76
2022/06/04 03:30:31;;;;;;;7.31;6.76;;;;;;;20.84;84.99;101116.81;461215;115;923060;-76
2022/06/04 03:31:35;;;;;;;7.35;6.67;;;;;;;20.84;84.76;101118.78;461312;115;922870;-77
2022/06/04 03:32:38;;;;;;;8.50;6.86;;;;;;;20.84;84.68;101119.59;461231;115;922561;-77
2022/06/04 03:33:41;;;;;;;8.06;6.37;;;;;;;20.83;84.17;101119.88;461223;115;930549;-76
2022/06/04 03:34:44;;;;;;;7.08;6.58;;;;;;;20.79;84.23;101120.40;461275;115;923048;-77
2022/06/04 03:35:47;;;;;;;6.85;6.32;;;;;;;20.79;84.29;101116.79;461259;115;922524;-76
2022/06/04 03:36:50;;;;;;;7.95;6.70;;;;;;;20.79;84.43;101117.63;461298;115;922525;-76
2022/06/04 03:37:53;;;;;;;7.51;6.91;;;;;;;20.81;84.68;101115.44;461272;115;923121;-76
2022/06/04 03:38:57;;;;;;;6.84;6.28;;;;;;;20.83;84.64;101120.72;461268;115;923148;-74
2022/06/04 03:40:04;;;;;;;7.24;6.59;;;;;;;20.85;84.54;101126.80;460089;115;922941;-74
2022/06/04 03:41:07;;;;;;;6.62;6.12;;;;;;;20.87;84.60;101127.38;461106;115;922468;-75
2022/06/04 03:42:10;;;;;;;6.84;6.24;;;;;;;20.90;84.46;101125.98;461270;115;923017;-75
2022/06/04 03:43:14;;;;;;;6.61;6.17;;;;;;;20.90;84.27;101126.83;461240;115;922715;-76
2022/06/04 03:44:17;;;;;;;6.58;6.16;;;;;;;20.92;84.26;101124.63;461237;115;922557;-75
2022/06/04 03:45:20;;;;;;;8.62;6.67;;;;;;;20.95;84.14;101123.27;461374;114;922948;-76
2022/06/04 03:46:24;;;;;;;6.26;5.79;;;;;;;;;;461773;115;922582;-76
2022/06/04 03:47:28;;;;;;;6.82;6.32;;;;;;;20.99;84.22;101138.25;461624;115;922488;-75
2022/06/04 03:48:31;;;;;;;7.33;6.58;;;;;;;21.03;84.06;101126.34;461703;115;930535;-75
2022/06/04 03:49:34;;;;;;;7.26;6.36;;;;;;;21.03;84.06;101126.34;461779;115;930633;-76
2022/06/04 03:50:38;;;;;;;7.12;6.52;;;;;;;21.04;83.89;101135.50;461781;115;923094;-76
2022/06/04 03:51:41;;;;;;;7.38;6.33;;;;;;;21.05;83.85;101128.85;461798;115;922567;-76
2022/06/04 03:52:46;;;;;;;6.46;5.92;;;;;;;21.07;83.85;101133.00;461777;115;922887;-76
2022/06/04 03:53:49;;;;;;;6.53;5.99;;;;;;;21.08;83.84;101126.36;461652;115;923240;-76
2022/06/04 03:54:52;;;;;;;6.85;5.87;;;;;;;21.10;83.76;101128.87;461983;115;922543;-75
2022/06/04 03:55:55;;;;;;;7.40;6.76;;;;;;;21.10;83.67;101117.78;460174;115;922492;-76
2022/06/04 03:57:37;;;;;;;6.28;5.72;;;;;;;21.11;83.63;101120.29;458544;115;922512;-76
2022/06/04 03:58:03;;;;;;;6.58;6.05;;;;;;;21.12;83.59;101121.93;456608;115;922611;-76
2022/06/04 03:59:06;;;;;;;6.70;6.21;;;;;;;21.11;83.60;101109.20;458504;115;922374;-76
2022/06/04 04:00:17;;;;;;;6.55;6.06;;;;;;;21.12;83.59;101116.38;458391;115;922695;-76
2022/06/04 04:01:24;;;;;;;6.86;6.33;;;;;;;21.13;83.45;101118.06;458267;115;922590;-75
2022/06/04 04:02:27;;;;;;;8.19;6.43;;;;;;;21.12;83.39;101121.93;458292;115;923013;-76
2022/06/04 04:03:30;;;;;;;6.99;6.18;;;;;;;21.12;83.46;101121.93;458403;115;922630;-75
2022/06/04 04:04:34;;;;;;;6.44;5.87;;;;;;;21.12;83.44;101116.38;458342;115;930350;-75
2022/06/04 04:05:43;;;;;;;8.09;6.51;;;;;;;21.13;83.40;101120.83;458444;115;923019;-76
2022/06/04 04:06:46;;;;;;;6.87;6.23;;;;;;;21.13;83.41;101120.83;458348;115;922412;-75
2022/06/04 04:07:50;;;;;;;6.35;5.86;;;;;;;21.15;83.29;101121.44;458800;115;922482;-75
2022/06/04 04:08:54;;;;;;;6.19;5.78;;;;;;;21.16;83.32;101127.82;458749;115;922252;-76
2022/06/04 04:09:57;;;;;;;6.26;5.66;;;;;;;21.17;83.39;101118.41;458666;115;922783;-77
2022/06/04 04:11:00;;;;;;;7.01;6.25;;;;;;;21.19;83.30;101121.72;458848;115;922690;-76
2022/06/04 04:12:04;;;;;;;9.17;5.66;;;;;;;21.19;83.25;101119.78;461344;115;922938;-75
2022/06/04 04:13:07;;;;;;;6.60;6.11;;;;;;;21.24;83.20;101124.50;461742;115;922876;-77
2022/06/04 04:14:10;;;;;;;6.53;5.97;;;;;;;21.24;83.03;101124.50;461623;115;930240;-76
2022/06/04 04:15:14;;;;;;;6.86;6.23;;;;;;;21.25;82.82;101122.56;461699;115;930418;-76
2022/06/04 04:16:17;;;;;;;6.46;5.87;;;;;;;21.24;82.91;101121.73;461589;115;922773;-76
2022/06/04 04:17:22;;;;;;;6.59;6.02;;;;;;;21.25;82.98;101120.63;461540;115;930347;-76
2022/06/04 04:18:26;;;;;;;6.10;5.69;;;;;;;21.27;83.01;101121.20;461542;115;922312;-76
2022/06/04 04:19:32;;;;;;;6.87;6.23;;;;;;;21.31;82.98;101119.55;461702;115;922535;-75
2022/06/04 04:20:38;;;;;;;5.86;5.36;;;;;;;21.33;83.01;101120.12;461447;115;922483;-75
2022/06/04 04:21:40;;;;;;;8.77;5.72;;;;;;;21.36;83.00;101118.72;461456;115;922486;-74
2022/06/04 04:22:44;;;;;;;5.73;5.33;;;;;;;21.37;82.64;101118.45;459943;115;922486;-77
2022/06/04 04:23:47;;;;;;;6.48;5.81;;;;;;;21.38;82.64;101120.12;458910;115;922303;-75
2022/06/04 04:24:50;;;;;;;5.35;4.99;;;;;;;21.40;82.65;101109.57;458905;115;922585;-75
2022/06/04 04:25:53;;;;;;;6.88;6.01;;;;;;;21.42;82.74;101112.92;458903;115;922263;-75
2022/06/04 04:26:56;;;;;;;5.60;5.03;;;;;;;21.45;82.78;101104.03;458940;115;922455;-77
2022/06/04 04:28:00;;;;;;;5.76;4.94;;;;;;;21.49;82.61;101107.95;458894;115;922345;-76
2022/06/04 04:29:03;;;;;;;5.94;5.36;;;;;;;21.52;82.41;101107.38;458787;113;922427;-75
2022/06/04 04:30:09;;;;;;;5.92;5.24;;;;;;;21.54;81.90;101113.50;460361;115;922446;-75
2022/06/04 04:31:16;;;;;;;6.16;5.38;;;;;;;21.53;81.76;101106.28;461470;115;922540;-75
2022/06/04 04:32:19;;;;;;;6.41;5.65;;;;;;;21.53;81.89;101108.22;461559;115;922649;-76
2022/06/04 04:33:22;;;;;;;8.59;6.00;;;;;;;21.53;82.01;101103.51;461697;115;922380;-75
2022/06/04 04:34:26;;;;;;;5.90;4.97;;;;;;;21.57;82.03;101106.55;461275;115;922939;-76
2022/06/04 04:35:31;;;;;;;5.75;5.40;;;;;;;21.59;81.81;101109.90;461323;115;922604;-76
2022/06/04 04:36:35;;;;;;;6.25;5.64;;;;;;;21.60;81.79;101104.08;461151;115;923156;-74
2022/06/04 04:37:37;;;;;;;5.84;5.37;;;;;;;21.62;81.79;101112.11;461297;115;922641;-74
2022/06/04 04:38:41;;;;;;;5.49;4.99;;;;;;;21.62;81.55;101099.06;461331;115;922947;-75
2022/06/04 04:39:44;;;;;;;5.45;4.96;;;;;;;21.63;81.47;101105.45;461234;115;922561;-75
2022/06/04 04:40:48;;;;;;;5.11;4.81;;;;;;;21.62;81.37;101104.63;461225;115;922505;-76
2022/06/04 04:41:52;;;;;;;5.33;4.84;;;;;;;21.62;81.37;101106.56;461141;115;922493;-75
2022/06/04 04:42:55;;;;;;;5.05;4.59;;;;;;;21.62;81.35;101107.39;461241;115;923123;-76
2022/06/04 04:43:58;;;;;;;4.37;4.10;;;;;;;21.64;81.34;101107.13;461246;115;922618;-75
2022/06/04 04:45:02;;;;;;;6.90;4.67;;;;;;;21.64;81.36;101104.36;461254;115;922673;-76
2022/06/04 04:46:07;;;;;;;5.64;5.21;;;;;;;21.66;81.28;101107.70;460493;115;923099;-75
2022/06/04 04:47:10;;;;;;;5.19;4.78;;;;;;;21.68;81.27;101099.08;459968;115;930519;-76
2022/06/04 04:48:14;;;;;;;6.81;5.38;;;;;;;21.70;81.23;101110.74;460295;115;922578;-76
2022/06/04 04:49:18;;;;;;;4.79;4.39;;;;;;;21.72;81.29;101103.82;460062;115;922902;-76
2022/06/04 04:50:28;;;;;;;4.86;4.16;;;;;;;21.74;81.29;101104.36;460144;115;923019;-76
2022/06/04 04:51:34;;;;;;;4.41;4.11;;;;;;;21.76;81.14;101104.93;460066;115;922512;-75
2022/06/04 04:52:36;;;;;;;4.50;4.20;;;;;;;21.78;81.03;101101.86;460058;115;922475;-76
2022/06/04 04:53:40;;;;;;;4.32;3.89;;;;;;;21.79;81.06;101109.91;460101;115;922934;-75
2022/06/04 04:54:43;;;;;;;4.72;3.94;;;;;;;21.82;80.86;101108.55;460155;115;922631;-75
2022/06/04 04:55:47;;;;;;;7.64;3.64;;;;;;;21.81;80.87;101104.93;459057;115;922560;-76
2022/06/04 04:56:50;;;;;;;3.98;3.42;;;;;;;21.82;80.73;101100.22;449322;118;922598;-76
2022/06/04 04:57:53;;;;;;;3.72;3.38;;;;;;;21.82;80.55;101106.60;449496;117;924630;-76
2022/06/04 04:58:56;;;;;;;4.14;3.78;;;;;;;21.83;80.39;101102.69;449480;118;922434;-76
2022/06/04 05:00:00;;;;;;;3.80;3.52;;;;;;;21.85;80.28;101111.59;449515;116;922988;-75
2022/06/04 05:01:03;;;;;;;3.07;2.86;;;;;;;21.86;80.09;101102.16;449456;117;922538;-76
2022/06/04 05:02:06;;;;;;;4.41;3.27;;;;;;;21.86;80.10;101106.88;449458;118;922579;-76
2022/06/04 05:03:09;;;;;;;3.31;3.09;;;;;;;21.87;79.72;101109.38;449568;117;922866;-75
2022/06/04 05:04:12;;;;;;;4.22;3.87;;;;;;;21.86;79.59;101107.70;449514;116;923016;-76
2022/06/04 05:05:15;;;;;;;9.76;3.18;;;;;;;21.86;79.43;101101.31;449499;118;922594;-76
2022/06/04 05:06:21;;;;;;;3.32;2.85;;;;;;;21.85;79.38;101103.26;449532;118;923089;-76
2022/06/04 05:07:25;;;;;;;4.21;3.63;;;;;;;21.87;79.21;101105.77;449331;118;922751;-76
2022/06/04 05:08:28;;;;;;;4.97;3.10;;;;;;;21.87;79.00;101114.09;449382;118;922851;-76
2022/06/04 05:09:31;;;;;;;4.43;3.34;;;;;;;21.87;79.00;101108.55;449349;116;922852;-76
2022/06/04 05:10:35;;;;;;;3.42;3.11;;;;;;;21.90;79.10;101111.59;449428;118;922943;-76
2022/06/04 05:11:38;;;;;;;3.96;3.04;;;;;;;21.93;79.04;101115.77;454475;115;922625;-76
2022/06/04 05:12:41;;;;;;;3.56;3.26;;;;;;;21.93;78.67;101113.83;461092;115;923335;-77
2022/06/04 05:13:49;;;;;;;4.61;3.04;;;;;;;21.94;78.36;101115.50;461169;115;923110;-76
2022/06/04 05:14:52;;;;;;;3.41;3.09;;;;;;;21.94;78.20;101117.44;460905;115;922594;-76
2022/06/04 05:15:55;;;;;;;3.17;2.95;;;;;;;21.91;78.42;101110.48;461116;115;923064;-75
2022/06/04 05:16:58;;;;;;;3.44;2.75;;;;;;;21.91;78.49;101109.65;461146;115;922547;-74
2022/06/04 05:18:02;;;;;;;3.34;3.12;;;;;;;21.91;78.33;101109.65;461170;115;923064;-74